createdAt,value
2019-01-02T00:00:44.014Z,1.86
2019-01-02T00:03:13.463Z,1.86
2019-01-02T00:05:43.194Z,1.86
2019-01-02T00:08:12.580Z,1.82
2019-01-02T00:10:42.417Z,1.80
2019-01-02T00:13:11.879Z,1.75
2019-01-02T00:15:41.293Z,1.72
2019-01-02T00:18:10.755Z,1.69
2019-01-02T00:20:40.244Z,1.68
2019-01-02T00:23:10.303Z,1.66
2019-01-02T00:25:39.743Z,1.60
2019-01-02T00:28:09.463Z,1.60
2019-01-02T00:30:39.007Z,1.55
2019-01-02T00:33:09.014Z,1.51
2019-01-02T00:35:38.477Z,1.46
2019-01-02T00:38:08.027Z,1.43
2019-01-02T00:40:37.570Z,1.44
2019-01-02T00:43:07.158Z,1.43
2019-01-02T00:45:36.645Z,1.43
2019-01-02T00:48:06.073Z,1.47
2019-01-02T00:50:35.882Z,1.52
2019-01-02T00:53:05.413Z,1.56
2019-01-02T00:55:35.166Z,1.61
2019-01-02T00:58:04.622Z,1.65
2019-01-02T01:00:34.448Z,1.68
2019-01-02T01:03:04.008Z,1.74
2019-01-02T01:05:33.791Z,1.76
2019-01-02T01:08:03.186Z,1.78
2019-01-02T01:10:32.710Z,1.77
2019-01-02T01:13:02.152Z,1.76
2019-01-02T01:15:31.700Z,1.75
2019-01-02T01:18:01.085Z,1.74
2019-01-02T01:20:30.568Z,1.68
2019-01-02T01:23:00.136Z,1.64
2019-01-02T01:25:29.887Z,1.62
2019-01-02T01:27:59.251Z,1.60
2019-01-02T01:30:28.825Z,1.60
2019-01-02T01:32:58.267Z,1.60
2019-01-02T01:35:27.760Z,1.60
2019-01-02T01:37:57.696Z,1.59
2019-01-02T01:40:27.210Z,1.60
2019-01-02T01:42:56.777Z,1.61
2019-01-02T01:45:26.589Z,1.60
2019-01-02T01:47:56.084Z,1.62
2019-01-02T01:50:25.582Z,1.62
2019-01-02T01:52:55.123Z,1.52
2019-01-02T01:55:24.589Z,1.54
2019-01-02T01:57:54.324Z,1.56
2019-01-02T02:00:23.981Z,1.58
2019-01-02T02:02:53.660Z,1.56
2019-01-02T02:05:23.569Z,1.52
2019-01-02T02:07:53.057Z,1.53
2019-01-02T02:10:22.545Z,1.54
2019-01-02T02:12:52.128Z,1.51
2019-01-02T02:15:21.592Z,1.45
2019-01-02T02:17:51.391Z,1.40
2019-01-02T02:20:20.872Z,1.39
2019-01-02T02:22:50.554Z,1.41
2019-01-02T02:25:21.548Z,1.42
2019-01-02T02:27:51.016Z,1.42
2019-01-02T02:30:20.881Z,1.39
2019-01-02T02:32:51.929Z,1.35
2019-01-02T02:35:21.695Z,1.24
2019-01-02T02:37:51.576Z,1.13
2019-01-02T02:40:21.105Z,1.03
2019-01-02T02:42:50.499Z,0.95
2019-01-02T02:45:20.224Z,0.86
2019-01-02T02:47:50.108Z,0.77
2019-01-02T02:50:19.919Z,0.70
2019-01-02T02:52:49.575Z,0.62
2019-01-02T02:55:27.163Z,0.49
2019-01-02T02:57:56.772Z,0.48
2019-01-02T03:00:26.204Z,0.42
2019-01-02T03:02:55.636Z,0.41
2019-01-02T03:05:25.110Z,0.41
2019-01-02T03:07:54.651Z,0.38
2019-01-02T03:10:24.615Z,0.34
2019-01-02T03:12:54.309Z,0.31
2019-01-02T03:15:24.251Z,0.25
2019-01-02T03:17:53.750Z,0.22
2019-01-02T03:20:23.163Z,0.17
2019-01-02T03:22:52.579Z,0.14
2019-01-02T03:25:22.472Z,0.11
2019-01-02T03:27:52.841Z,-0.01
2019-01-02T03:30:22.500Z,-0.02
2019-01-02T03:32:52.173Z,-0.02
2019-01-02T03:35:22.034Z,-0.08
2019-01-02T03:37:51.527Z,-0.11
2019-01-02T03:40:21.459Z,-0.20
2019-01-02T03:42:50.878Z,-0.24
2019-01-02T03:45:20.868Z,-0.21
2019-01-02T03:47:50.625Z,-0.21
2019-01-02T03:50:21.021Z,-0.15
2019-01-02T03:52:50.447Z,-0.16
2019-01-02T03:55:19.992Z,-0.19
2019-01-02T03:57:50.017Z,-0.12
2019-01-02T04:00:20.664Z,-0.16
2019-01-02T04:02:50.302Z,-0.16
2019-01-02T04:05:25.061Z,-0.10
2019-01-02T04:07:58.694Z,-0.11
2019-01-02T04:10:28.222Z,-0.12
2019-01-02T04:12:57.766Z,-0.15
2019-01-02T04:15:27.361Z,-0.16
2019-01-02T04:17:56.771Z,-0.11
2019-01-02T04:20:26.243Z,-0.14
2019-01-02T04:22:55.795Z,-0.12
2019-01-02T04:25:25.218Z,-0.15
2019-01-02T04:27:54.690Z,-0.20
2019-01-02T04:30:24.175Z,-0.26
2019-01-02T04:32:53.669Z,-0.30
2019-01-02T04:35:23.176Z,-0.31
2019-01-02T04:37:52.601Z,-0.36
2019-01-02T04:40:22.096Z,-0.39
2019-01-02T04:42:51.599Z,-0.40
2019-01-02T04:45:21.022Z,-0.37
2019-01-02T04:47:50.531Z,-0.47
2019-01-02T04:50:20.017Z,-0.49
2019-01-02T04:52:49.516Z,-0.59
2019-01-02T04:55:18.920Z,-0.58
2019-01-02T04:57:48.346Z,-0.61
2019-01-02T05:00:18.644Z,-0.68
2019-01-02T05:02:48.142Z,-0.76
2019-01-02T05:05:17.579Z,-0.85
2019-01-02T05:07:47.584Z,-0.87
2019-01-02T05:10:17.100Z,-0.91
2019-01-02T05:12:46.638Z,-0.97
2019-01-02T05:15:16.097Z,-1.02
2019-01-02T05:17:45.606Z,-1.03
2019-01-02T05:20:16.673Z,-1.06
2019-01-02T05:22:46.143Z,-1.12
2019-01-02T05:25:15.630Z,-1.15
2019-01-02T05:27:45.638Z,-1.19
2019-01-02T05:30:19.537Z,-1.27
2019-01-02T05:32:48.996Z,-1.30
2019-01-02T05:35:18.470Z,-1.29
2019-01-02T05:37:48.007Z,-1.29
2019-01-02T05:40:22.521Z,-1.35
2019-01-02T05:42:51.987Z,-1.33
2019-01-02T05:45:21.435Z,-1.27
2019-01-02T05:47:50.920Z,-1.22
2019-01-02T05:50:20.414Z,-1.11
2019-01-02T05:52:49.902Z,-1.05
2019-01-02T05:55:19.392Z,-0.93
2019-01-02T05:57:48.896Z,-0.83
2019-01-02T06:00:18.339Z,-0.83
2019-01-02T06:02:47.850Z,-0.84
2019-01-02T06:05:17.444Z,-0.86
2019-01-02T06:07:47.052Z,-0.79
2019-01-02T06:10:17.083Z,-0.72
2019-01-02T06:12:46.536Z,-0.69
2019-01-02T06:15:17.345Z,-0.62
2019-01-02T06:17:46.790Z,-0.58
2019-01-02T06:20:17.657Z,-0.49
2019-01-02T06:22:47.024Z,-0.40
2019-01-02T06:25:16.522Z,-0.31
2019-01-02T06:27:46.047Z,-0.27
2019-01-02T06:30:15.483Z,-0.03
2019-01-02T06:32:44.955Z,0.08
2019-01-02T06:35:14.521Z,0.28
2019-01-02T06:37:44.066Z,0.55
2019-01-02T06:40:14.294Z,0.73
2019-01-02T06:42:43.797Z,0.83
2019-01-02T06:45:15.271Z,0.89
2019-01-02T06:47:44.681Z,0.96
2019-01-02T06:50:20.038Z,1.05
2019-01-02T06:52:49.535Z,0.98
2019-01-02T06:55:19.128Z,1.01
2019-01-02T06:57:48.526Z,1.10
2019-01-02T07:00:39.779Z,1.07
2019-01-02T07:03:09.221Z,1.17
2019-01-02T07:05:38.612Z,1.35
2019-01-02T07:08:08.122Z,1.45
2019-01-02T07:10:37.569Z,1.51
2019-01-02T07:13:07.022Z,1.49
2019-01-02T07:15:36.424Z,1.41
2019-01-02T07:18:05.799Z,1.34
2019-01-02T07:20:35.297Z,1.17
2019-01-02T07:23:04.733Z,1.04
2019-01-02T07:25:34.246Z,0.90
2019-01-02T07:28:03.650Z,0.78
2019-01-02T07:30:33.149Z,0.75
2019-01-02T07:33:02.597Z,0.67
2019-01-02T07:36:12.511Z,0.69
2019-01-02T07:39:05.665Z,0.70
2019-01-02T07:42:28.110Z,0.77
2019-01-02T07:45:50.583Z,0.85
2019-01-02T07:49:25.000Z,0.91
2019-01-02T07:52:29.635Z,1.05
2019-01-02T07:55:49.214Z,1.08
2019-01-02T07:58:41.744Z,1.24
2019-01-02T08:02:00.032Z,1.33
2019-01-02T08:05:10.096Z,1.47
2019-01-02T08:08:16.258Z,1.65
2019-01-02T08:11:22.760Z,1.82
2019-01-02T08:14:38.198Z,1.94
2019-01-02T08:18:00.795Z,2.20
2019-01-02T08:21:29.428Z,2.38
2019-01-02T08:24:48.647Z,2.64
2019-01-02T08:27:46.165Z,2.91
2019-01-02T08:30:54.881Z,3.30
2019-01-02T08:33:55.339Z,3.61
2019-01-02T08:37:20.906Z,3.81
2019-01-02T08:40:14.203Z,3.99
2019-01-02T08:43:15.024Z,4.29
2019-01-02T08:46:25.608Z,4.55
2019-01-02T08:49:51.136Z,4.78
2019-01-02T08:52:58.551Z,5.08
2019-01-02T08:56:15.341Z,5.39
2019-01-02T08:58:57.133Z,5.62
2019-01-02T09:01:55.749Z,5.61
2019-01-02T09:04:47.209Z,5.73
2019-01-02T09:07:47.812Z,5.66
2019-01-02T09:11:16.469Z,5.84
2019-01-02T09:14:27.007Z,5.96
2019-01-02T09:17:58.506Z,6.29
2019-01-02T09:21:06.582Z,6.39
2019-01-02T09:24:28.921Z,6.25
2019-01-02T09:27:45.375Z,6.26
2019-01-02T09:31:11.349Z,6.27
2019-01-02T09:34:15.949Z,6.04
2019-01-02T09:37:26.376Z,5.65
2019-01-02T09:40:33.993Z,5.55
2019-01-02T09:44:05.571Z,5.67
2019-01-02T09:47:13.237Z,5.84
2019-01-02T09:50:12.373Z,6.22
2019-01-02T09:53:26.790Z,6.61
2019-01-02T09:56:24.780Z,6.92
2019-01-02T09:59:16.561Z,7.35
2019-01-02T10:02:18.546Z,7.46
2019-01-02T10:05:34.704Z,7.65
2019-01-02T10:08:48.709Z,7.94
2019-01-02T10:11:58.184Z,8.64
2019-01-02T10:14:45.955Z,9.10
2019-01-02T10:18:01.399Z,9.02
2019-01-02T10:21:06.375Z,8.68
2019-01-02T10:24:18.029Z,8.32
2019-01-02T10:27:26.524Z,8.08
2019-01-02T10:30:27.690Z,7.94
2019-01-02T10:34:02.663Z,7.81
2019-01-02T10:37:07.622Z,7.43
2019-01-02T10:40:17.866Z,7.02
2019-01-02T10:43:14.942Z,7.37
2019-01-02T10:46:21.154Z,7.37
2019-01-02T10:49:17.320Z,7.59
2019-01-02T10:52:32.350Z,7.64
2019-01-02T10:55:23.902Z,7.74
2019-01-02T10:58:55.261Z,7.93
2019-01-02T11:02:11.442Z,7.88
2019-01-02T11:05:32.984Z,7.61
2019-01-02T11:08:36.379Z,7.73
2019-01-02T11:11:37.062Z,8.07
2019-01-02T11:14:17.051Z,8.49
2019-01-02T11:17:18.976Z,8.54
2019-01-02T11:20:57.019Z,8.64
2019-01-02T11:24:09.806Z,8.65
2019-01-02T11:27:13.881Z,8.54
2019-01-02T11:30:18.500Z,8.57
2019-01-02T11:33:20.257Z,8.46
2019-01-02T11:36:26.279Z,8.48
2019-01-02T11:39:57.320Z,8.27
2019-01-02T11:43:18.960Z,8.24
2019-01-02T11:45:48.347Z,9.36
2019-01-02T11:48:17.738Z,10.99
2019-01-02T11:50:47.270Z,11.28
2019-01-02T11:53:16.778Z,10.66
2019-01-02T11:55:46.339Z,9.92
2019-01-02T11:58:16.277Z,9.54
2019-01-02T12:00:45.714Z,9.39
2019-01-02T12:03:15.294Z,9.38
2019-01-02T12:05:44.731Z,9.19
2019-01-02T12:08:14.289Z,9.23
2019-01-02T12:10:43.754Z,9.25
2019-01-02T12:13:13.279Z,9.38
2019-01-02T12:15:42.695Z,9.39
2019-01-02T12:18:12.182Z,9.21
2019-01-02T12:20:41.638Z,8.71
2019-01-02T12:23:11.082Z,8.34
2019-01-02T12:25:40.474Z,8.23
2019-01-02T12:28:09.875Z,8.18
2019-01-02T12:30:39.396Z,8.40
2019-01-02T12:33:08.948Z,8.42
2019-01-02T12:35:38.408Z,8.39
2019-01-02T12:38:07.860Z,8.30
2019-01-02T12:40:37.404Z,8.14
2019-01-02T12:43:06.808Z,8.09
2019-01-02T12:45:36.302Z,7.95
2019-01-02T12:48:05.823Z,7.81
2019-01-02T12:50:35.322Z,7.65
2019-01-02T12:53:04.765Z,7.56
2019-01-02T12:55:34.322Z,7.60
2019-01-02T12:58:03.801Z,7.51
2019-01-02T13:00:39.383Z,7.56
2019-01-02T13:03:25.778Z,7.53
2019-01-02T13:06:51.415Z,7.48
2019-01-02T13:09:44.969Z,7.53
2019-01-02T13:12:45.125Z,7.62
2019-01-02T13:15:35.276Z,7.51
2019-01-02T13:18:42.809Z,7.43
2019-01-02T13:22:11.267Z,7.34
2019-01-02T13:25:19.683Z,7.32
2019-01-02T13:28:31.065Z,7.30
2019-01-02T13:31:43.416Z,7.34
2019-01-02T13:34:45.012Z,7.27
2019-01-02T13:37:56.816Z,7.25
2019-01-02T13:41:10.042Z,7.27
2019-01-02T13:43:57.789Z,7.18
2019-01-02T13:47:03.960Z,7.12
2019-01-02T13:49:53.760Z,6.98
2019-01-02T13:52:23.261Z,6.93
2019-01-02T13:54:54.301Z,6.92
2019-01-02T13:57:23.839Z,6.88
2019-01-02T13:59:53.288Z,6.83
2019-01-02T14:02:23.802Z,6.79
2019-01-02T14:04:53.256Z,6.71
2019-01-02T14:07:22.683Z,6.68
2019-01-02T14:09:52.309Z,6.66
2019-01-02T14:12:21.798Z,6.65
2019-01-02T14:14:51.256Z,6.58
2019-01-02T14:17:20.727Z,6.55
2019-01-02T14:19:50.259Z,6.50
2019-01-02T14:22:19.646Z,6.45
2019-01-02T14:24:49.138Z,6.34
2019-01-02T14:27:18.614Z,6.19
2019-01-02T14:29:48.089Z,6.06
2019-01-02T14:32:17.542Z,5.91
2019-01-02T14:34:47.067Z,5.86
2019-01-02T14:37:16.553Z,5.77
2019-01-02T14:39:46.063Z,5.72
2019-01-02T14:42:15.662Z,5.61
2019-01-02T14:44:45.121Z,5.58
2019-01-02T14:47:14.555Z,5.47
2019-01-02T14:49:44.002Z,5.35
2019-01-02T14:52:13.462Z,5.27
2019-01-02T14:54:42.943Z,5.23
2019-01-02T14:57:12.408Z,5.11
2019-01-02T14:59:41.903Z,5.00
2019-01-02T15:02:11.350Z,4.94
2019-01-02T15:04:40.848Z,4.84
2019-01-02T15:07:10.384Z,4.74
2019-01-02T15:09:39.823Z,4.73
2019-01-02T15:12:09.253Z,4.62
2019-01-02T15:14:38.883Z,4.53
2019-01-02T15:17:08.373Z,4.48
2019-01-02T15:19:37.916Z,4.42
2019-01-02T15:22:07.445Z,4.34
2019-01-02T15:24:36.914Z,4.40
2019-01-02T15:27:06.370Z,4.42
2019-01-02T15:29:35.764Z,4.34
2019-01-02T15:32:05.223Z,4.27
2019-01-02T15:34:34.709Z,4.28
2019-01-02T15:37:04.265Z,4.29
2019-01-02T15:39:33.801Z,4.36
2019-01-02T15:42:03.275Z,4.38
2019-01-02T15:44:32.760Z,4.38
2019-01-02T15:47:08.529Z,4.39
2019-01-02T15:49:34.872Z,4.32
2019-01-02T15:52:04.529Z,4.31
2019-01-02T15:54:33.958Z,4.35
2019-01-02T15:57:03.443Z,4.29
2019-01-02T15:59:33.088Z,4.23
2019-01-02T16:02:02.583Z,4.18
2019-01-02T16:04:32.143Z,4.26
2019-01-02T16:07:01.664Z,4.23
2019-01-02T16:09:31.232Z,4.26
2019-01-02T16:12:00.687Z,4.18
2019-01-02T16:14:30.140Z,4.16
2019-01-02T16:16:59.745Z,4.10
2019-01-02T16:19:29.238Z,4.08
2019-01-02T16:21:58.690Z,4.11
2019-01-02T16:24:28.142Z,4.15
2019-01-02T16:26:58.260Z,4.11
2019-01-02T16:29:27.840Z,4.15
2019-01-02T16:31:57.420Z,4.13
2019-01-02T16:34:26.811Z,4.09
2019-01-02T16:36:56.242Z,4.14
2019-01-02T16:39:25.699Z,4.08
2019-01-02T16:41:55.198Z,4.06
2019-01-02T16:44:24.636Z,3.96
2019-01-02T16:46:54.008Z,4.07
2019-01-02T16:49:23.572Z,4.07
2019-01-02T16:51:53.035Z,4.01
2019-01-02T16:54:22.454Z,4.03
2019-01-02T16:56:51.937Z,4.03
2019-01-02T16:59:21.601Z,4.03
2019-01-02T17:01:50.967Z,4.07
2019-01-02T17:04:20.532Z,4.09
2019-01-02T17:06:50.044Z,4.10
2019-01-02T17:09:19.519Z,4.11
2019-01-02T17:11:49.161Z,4.09
2019-01-02T17:14:18.713Z,4.08
2019-01-02T17:16:48.174Z,4.08
2019-01-02T17:19:17.643Z,4.10
2019-01-02T17:21:47.093Z,4.07
2019-01-02T17:24:16.575Z,4.13
2019-01-02T17:26:46.443Z,4.15
2019-01-02T17:29:15.956Z,4.11
2019-01-02T17:31:45.446Z,4.10
2019-01-02T17:34:14.900Z,4.04
2019-01-02T17:36:44.356Z,4.07
2019-01-02T17:39:13.753Z,4.04
2019-01-02T17:41:43.192Z,4.04
2019-01-02T17:44:12.694Z,4.02
2019-01-02T17:46:42.182Z,4.00
2019-01-02T17:49:11.663Z,3.92
2019-01-02T17:51:41.129Z,3.92
2019-01-02T17:54:11.359Z,3.93
2019-01-02T17:56:40.804Z,3.95
2019-01-02T17:59:10.262Z,3.96
2019-01-02T18:01:39.711Z,3.92
2019-01-02T18:04:09.189Z,3.95
2019-01-02T18:06:38.605Z,3.92
2019-01-02T18:09:08.881Z,3.91
2019-01-02T18:11:38.352Z,3.93
2019-01-02T18:14:07.879Z,3.94
2019-01-02T18:16:37.404Z,3.91
2019-01-02T18:19:06.844Z,3.96
2019-01-02T18:21:36.291Z,3.91
2019-01-02T18:24:06.156Z,3.89
2019-01-02T18:26:36.148Z,3.91
2019-01-02T18:29:05.641Z,3.87
2019-01-02T18:31:35.617Z,3.86
2019-01-02T18:34:05.043Z,3.81
2019-01-02T18:36:34.514Z,3.74
2019-01-02T18:39:04.652Z,3.74
2019-01-02T18:41:34.178Z,3.66
2019-01-02T18:44:04.350Z,3.59
2019-01-02T18:46:33.753Z,3.58
2019-01-02T18:49:03.263Z,3.62
2019-01-02T18:51:32.792Z,3.59
2019-01-02T18:54:02.259Z,3.66
2019-01-02T18:56:31.735Z,3.60
2019-01-02T18:59:01.180Z,3.58
2019-01-02T19:01:30.553Z,3.60
2019-01-02T19:03:59.980Z,3.56
2019-01-02T19:06:29.471Z,3.57
2019-01-02T19:08:59.058Z,3.58
2019-01-02T19:11:28.499Z,3.60
2019-01-02T19:13:57.953Z,3.60
2019-01-02T19:16:27.420Z,3.64
2019-01-02T19:18:56.915Z,3.60
2019-01-02T19:21:26.400Z,3.56
2019-01-02T19:23:55.773Z,3.55
2019-01-02T19:26:25.215Z,3.63
2019-01-02T19:28:54.732Z,3.60
2019-01-02T19:31:24.118Z,3.58
2019-01-02T19:33:53.490Z,3.63
2019-01-02T19:36:22.985Z,3.70
2019-01-02T19:38:52.501Z,3.67
2019-01-02T19:41:21.895Z,3.66
2019-01-02T19:43:51.408Z,3.66
2019-01-02T19:46:20.901Z,3.68
2019-01-02T19:48:50.333Z,3.60
2019-01-02T19:51:19.871Z,3.60
2019-01-02T19:53:49.358Z,3.64
2019-01-02T19:56:18.797Z,3.52
2019-01-02T19:58:48.191Z,3.46
2019-01-02T20:01:17.687Z,3.47
2019-01-02T20:03:47.143Z,3.39
2019-01-02T20:06:16.583Z,3.34
2019-01-02T20:08:45.994Z,3.33
2019-01-02T20:11:15.445Z,3.31
2019-01-02T20:13:44.908Z,3.35
2019-01-02T20:16:14.405Z,3.34
2019-01-02T20:18:43.837Z,3.27
2019-01-02T20:21:13.226Z,3.16
2019-01-02T20:23:42.728Z,3.11
2019-01-02T20:26:12.204Z,3.04
2019-01-02T20:28:41.635Z,2.97
2019-01-02T20:31:11.075Z,2.98
2019-01-02T20:33:40.538Z,3.01
2019-01-02T20:36:09.909Z,3.10
2019-01-02T20:38:39.320Z,3.09
2019-01-02T20:41:08.830Z,3.04
2019-01-02T20:43:38.306Z,3.02
2019-01-02T20:46:07.702Z,3.03
2019-01-02T20:48:37.059Z,2.97
2019-01-02T20:51:06.481Z,3.01
2019-01-02T20:53:35.954Z,2.98
2019-01-02T20:56:05.476Z,2.98
2019-01-02T20:58:34.878Z,2.96
2019-01-02T21:01:04.358Z,2.93
2019-01-02T21:03:33.750Z,2.84
2019-01-02T21:06:03.243Z,2.84
2019-01-02T21:08:32.752Z,2.82
2019-01-02T21:11:02.156Z,2.81
2019-01-02T21:13:31.586Z,2.75
2019-01-02T21:16:00.990Z,2.84
2019-01-02T21:18:30.494Z,2.87
2019-01-02T21:20:59.998Z,2.71
2019-01-02T21:23:29.357Z,2.78
2019-01-02T21:25:59.724Z,2.75
2019-01-02T21:28:29.237Z,2.83
2019-01-02T21:30:58.675Z,2.81
2019-01-02T21:33:28.067Z,2.78
2019-01-02T21:35:57.530Z,2.68
2019-01-02T21:38:26.948Z,2.73
2019-01-02T21:40:56.317Z,2.70
2019-01-02T21:43:25.722Z,2.64
2019-01-02T21:45:55.210Z,2.67
2019-01-02T21:48:24.656Z,2.70
2019-01-02T21:50:54.110Z,2.70
2019-01-02T21:53:23.587Z,2.68
2019-01-02T21:55:53.074Z,2.73
2019-01-02T21:58:22.555Z,2.76
2019-01-02T22:00:52.141Z,2.67
2019-01-02T22:03:21.537Z,2.59
2019-01-02T22:05:51.466Z,2.69
2019-01-02T22:08:20.909Z,2.69
2019-01-02T22:10:50.400Z,2.71
2019-01-02T22:13:19.767Z,2.60
2019-01-02T22:15:49.239Z,2.65
2019-01-02T22:18:18.742Z,2.66
2019-01-02T22:20:48.149Z,2.68
2019-01-02T22:23:17.685Z,2.64
2019-01-02T22:25:47.117Z,2.59
2019-01-02T22:28:16.514Z,2.53
2019-01-02T22:30:45.913Z,2.50
2019-01-02T22:33:15.393Z,2.60
2019-01-02T22:35:44.814Z,2.52
2019-01-02T22:38:14.294Z,2.51
2019-01-02T22:40:43.759Z,2.47
2019-01-02T22:43:13.275Z,2.52
2019-01-02T22:45:42.718Z,2.54
2019-01-02T22:48:12.123Z,2.57
2019-01-02T22:50:41.526Z,2.58
2019-01-02T22:53:11.010Z,2.44
2019-01-02T22:55:40.452Z,2.46
2019-01-02T22:58:09.882Z,2.43
2019-01-02T23:00:56.547Z,2.54
2019-01-02T23:03:43.372Z,2.50
2019-01-02T23:06:30.113Z,2.39
2019-01-02T23:09:21.236Z,2.35
2019-01-02T23:12:12.642Z,2.31
2019-01-02T23:15:08.196Z,2.26
2019-01-02T23:18:02.292Z,2.20
2019-01-02T23:20:53.589Z,2.26
2019-01-02T23:23:44.923Z,2.28
2019-01-02T23:26:45.031Z,2.28
2019-01-02T23:29:39.183Z,2.27
2019-01-02T23:32:25.794Z,2.25
2019-01-02T23:35:32.279Z,2.23
2019-01-02T23:38:35.763Z,2.17
2019-01-02T23:41:27.083Z,2.16
2019-01-02T23:44:13.683Z,2.20
2019-01-02T23:47:00.636Z,2.14
2019-01-02T23:49:48.921Z,2.07
2019-01-02T23:52:39.473Z,2.06
2019-01-02T23:55:26.340Z,2.09
2019-01-02T23:58:23.542Z,2.12
